sensor_id;sensor_type;location;lat;lon;timestamp;P1;durP1;ratioP1;P2;durP2;ratioP2
21657;SDS011;10990;48.174;9.782;2023-05-29T00:00:21;8.73;;;4.63;;
21657;SDS011;10990;48.174;9.782;2023-05-29T00:02:49;6.55;;;4.25;;
21657;SDS011;10990;48.174;9.782;2023-05-29T00:05:18;10.07;;;4.90;;
21657;SDS011;10990;48.174;9.782;2023-05-29T00:07:45;9.57;;;4.85;;
21657;SDS011;10990;48.174;9.782;2023-05-29T00:10:13;7.97;;;4.25;;
21657;SDS011;10990;48.174;9.782;2023-05-29T00:12:40;6.65;;;4.25;;
21657;SDS011;10990;48.174;9.782;2023-05-29T00:15:07;7.05;;;4.47;;
21657;SDS011;10990;48.174;9.782;2023-05-29T00:17:35;8.23;;;4.40;;
21657;SDS011;10990;48.174;9.782;2023-05-29T00:20:03;8.05;;;4.53;;
21657;SDS011;10990;48.174;9.782;2023-05-29T00:22:33;8.38;;;4.72;;
21657;SDS011;10990;48.174;9.782;2023-05-29T00:25:02;8.32;;;4.20;;
21657;SDS011;10990;48.174;9.782;2023-05-29T00:27:29;7.93;;;4.40;;
21657;SDS011;10990;48.174;9.782;2023-05-29T00:29:56;9.15;;;4.40;;
21657;SDS011;10990;48.174;9.782;2023-05-29T00:32:22;7.82;;;4.15;;
21657;SDS011;10990;48.174;9.782;2023-05-29T00:34:55;8.30;;;4.55;;
21657;SDS011;10990;48.174;9.782;2023-05-29T00:37:22;7.88;;;4.30;;
21657;SDS011;10990;48.174;9.782;2023-05-29T00:39:50;7.22;;;4.10;;
21657;SDS011;10990;48.174;9.782;2023-05-29T00:42:17;7.07;;;4.13;;
21657;SDS011;10990;48.174;9.782;2023-05-29T00:44:44;7.50;;;4.50;;
21657;SDS011;10990;48.174;9.782;2023-05-29T00:47:11;8.00;;;4.38;;
21657;SDS011;10990;48.174;9.782;2023-05-29T00:49:38;8.05;;;4.38;;
21657;SDS011;10990;48.174;9.782;2023-05-29T00:52:05;9.43;;;4.53;;
21657;SDS011;10990;48.174;9.782;2023-05-29T00:54:35;8.02;;;4.10;;
21657;SDS011;10990;48.174;9.782;2023-05-29T00:57:04;9.68;;;5.00;;
21657;SDS011;10990;48.174;9.782;2023-05-29T00:59:32;7.93;;;4.60;;
21657;SDS011;10990;48.174;9.782;2023-05-29T01:02:00;9.90;;;4.93;;
21657;SDS011;10990;48.174;9.782;2023-05-29T01:04:28;7.55;;;4.78;;
21657;SDS011;10990;48.174;9.782;2023-05-29T01:06:54;9.10;;;4.82;;
21657;SDS011;10990;48.174;9.782;2023-05-29T01:09:22;8.13;;;4.70;;
21657;SDS011;10990;48.174;9.782;2023-05-29T01:11:50;8.75;;;4.90;;
21657;SDS011;10990;48.174;9.782;2023-05-29T01:14:25;7.77;;;4.53;;
21657;SDS011;10990;48.174;9.782;2023-05-29T01:17:03;9.38;;;4.82;;
21657;SDS011;10990;48.174;9.782;2023-05-29T01:19:40;8.63;;;4.70;;
21657;SDS011;10990;48.174;9.782;2023-05-29T01:22:33;9.57;;;5.05;;
21657;SDS011;10990;48.174;9.782;2023-05-29T01:25:10;9.60;;;5.00;;
21657;SDS011;10990;48.174;9.782;2023-05-29T01:27:44;7.63;;;4.57;;
21657;SDS011;10990;48.174;9.782;2023-05-29T01:30:14;6.90;;;4.07;;
21657;SDS011;10990;48.174;9.782;2023-05-29T01:32:41;8.77;;;4.70;;
21657;SDS011;10990;48.174;9.782;2023-05-29T01:35:13;8.13;;;4.60;;
21657;SDS011;10990;48.174;9.782;2023-05-29T01:37:40;8.82;;;4.57;;
21657;SDS011;10990;48.174;9.782;2023-05-29T01:40:07;10.32;;;4.80;;
21657;SDS011;10990;48.174;9.782;2023-05-29T01:42:35;8.27;;;4.57;;
21657;SDS011;10990;48.174;9.782;2023-05-29T01:45:03;7.85;;;4.50;;
21657;SDS011;10990;48.174;9.782;2023-05-29T01:47:31;9.23;;;4.50;;
21657;SDS011;10990;48.174;9.782;2023-05-29T01:49:59;8.47;;;4.87;;
21657;SDS011;10990;48.174;9.782;2023-05-29T01:52:28;8.13;;;4.50;;
21657;SDS011;10990;48.174;9.782;2023-05-29T01:54:55;7.00;;;4.20;;
21657;SDS011;10990;48.174;9.782;2023-05-29T01:57:21;8.40;;;4.53;;
21657;SDS011;10990;48.174;9.782;2023-05-29T01:59:48;9.02;;;4.70;;
21657;SDS011;10990;48.174;9.782;2023-05-29T02:02:17;9.00;;;5.20;;
21657;SDS011;10990;48.174;9.782;2023-05-29T02:04:44;9.00;;;5.00;;
21657;SDS011;10990;48.174;9.782;2023-05-29T02:07:10;7.38;;;4.47;;
21657;SDS011;10990;48.174;9.782;2023-05-29T02:09:37;9.30;;;4.43;;
21657;SDS011;10990;48.174;9.782;2023-05-29T02:12:04;8.97;;;4.83;;
21657;SDS011;10990;48.174;9.782;2023-05-29T02:14:32;9.20;;;4.90;;
21657;SDS011;10990;48.174;9.782;2023-05-29T02:16:59;12.83;;;4.47;;
21657;SDS011;10990;48.174;9.782;2023-05-29T02:19:27;9.03;;;4.93;;
21657;SDS011;10990;48.174;9.782;2023-05-29T02:21:54;8.73;;;4.93;;
21657;SDS011;10990;48.174;9.782;2023-05-29T02:24:21;7.13;;;4.43;;
21657;SDS011;10990;48.174;9.782;2023-05-29T02:26:48;8.40;;;4.77;;
21657;SDS011;10990;48.174;9.782;2023-05-29T02:29:15;8.57;;;4.70;;
21657;SDS011;10990;48.174;9.782;2023-05-29T02:31:42;7.83;;;4.60;;
21657;SDS011;10990;48.174;9.782;2023-05-29T02:34:09;10.07;;;4.80;;
21657;SDS011;10990;48.174;9.782;2023-05-29T02:36:37;9.47;;;5.17;;
21657;SDS011;10990;48.174;9.782;2023-05-29T02:39:04;9.10;;;4.60;;
21657;SDS011;10990;48.174;9.782;2023-05-29T02:41:31;9.60;;;4.90;;
21657;SDS011;10990;48.174;9.782;2023-05-29T02:43:57;10.00;;;5.10;;
21657;SDS011;10990;48.174;9.782;2023-05-29T02:46:24;8.93;;;4.67;;
21657;SDS011;10990;48.174;9.782;2023-05-29T02:48:51;8.77;;;4.60;;
21657;SDS011;10990;48.174;9.782;2023-05-29T02:51:18;11.13;;;5.30;;
21657;SDS011;10990;48.174;9.782;2023-05-29T02:53:46;7.90;;;4.50;;
21657;SDS011;10990;48.174;9.782;2023-05-29T02:56:13;8.20;;;4.57;;
21657;SDS011;10990;48.174;9.782;2023-05-29T02:58:41;10.87;;;5.17;;
21657;SDS011;10990;48.174;9.782;2023-05-29T03:01:08;8.40;;;4.47;;
21657;SDS011;10990;48.174;9.782;2023-05-29T03:03:34;9.63;;;5.00;;
21657;SDS011;10990;48.174;9.782;2023-05-29T03:06:01;9.03;;;5.03;;
21657;SDS011;10990;48.174;9.782;2023-05-29T03:08:28;8.67;;;5.00;;
21657;SDS011;10990;48.174;9.782;2023-05-29T03:10:56;8.20;;;5.10;;
21657;SDS011;10990;48.174;9.782;2023-05-29T03:13:23;7.73;;;4.53;;
21657;SDS011;10990;48.174;9.782;2023-05-29T03:15:57;9.40;;;5.03;;
21657;SDS011;10990;48.174;9.782;2023-05-29T03:18:24;7.57;;;4.77;;
21657;SDS011;10990;48.174;9.782;2023-05-29T03:20:51;8.70;;;4.93;;
21657;SDS011;10990;48.174;9.782;2023-05-29T03:23:18;11.47;;;4.90;;
21657;SDS011;10990;48.174;9.782;2023-05-29T03:25:45;8.77;;;4.77;;
21657;SDS011;10990;48.174;9.782;2023-05-29T03:28:14;8.53;;;4.70;;
21657;SDS011;10990;48.174;9.782;2023-05-29T03:30:40;13.60;;;5.60;;
21657;SDS011;10990;48.174;9.782;2023-05-29T03:33:08;9.70;;;5.40;;
21657;SDS011;10990;48.174;9.782;2023-05-29T03:36:10;10.77;;;5.17;;
21657;SDS011;10990;48.174;9.782;2023-05-29T03:38:39;9.95;;;5.00;;
21657;SDS011;10990;48.174;9.782;2023-05-29T03:41:06;10.97;;;5.07;;
21657;SDS011;10990;48.174;9.782;2023-05-29T03:43:34;11.33;;;5.50;;
21657;SDS011;10990;48.174;9.782;2023-05-29T03:46:01;10.43;;;5.33;;
21657;SDS011;10990;48.174;9.782;2023-05-29T03:48:30;11.70;;;5.07;;
21657;SDS011;10990;48.174;9.782;2023-05-29T03:50:57;9.37;;;4.80;;
21657;SDS011;10990;48.174;9.782;2023-05-29T03:53:30;8.90;;;4.90;;
21657;SDS011;10990;48.174;9.782;2023-05-29T03:55:57;10.90;;;5.13;;
21657;SDS011;10990;48.174;9.782;2023-05-29T03:58:23;9.43;;;4.83;;
21657;SDS011;10990;48.174;9.782;2023-05-29T04:00:53;9.43;;;5.07;;
21657;SDS011;10990;48.174;9.782;2023-05-29T04:03:20;12.53;;;5.37;;
21657;SDS011;10990;48.174;9.782;2023-05-29T04:05:47;11.53;;;5.20;;
21657;SDS011;10990;48.174;9.782;2023-05-29T04:08:14;9.40;;;5.03;;
21657;SDS011;10990;48.174;9.782;2023-05-29T04:10:40;9.17;;;4.93;;
21657;SDS011;10990;48.174;9.782;2023-05-29T04:13:08;9.73;;;4.73;;
21657;SDS011;10990;48.174;9.782;2023-05-29T04:15:35;9.17;;;5.00;;
21657;SDS011;10990;48.174;9.782;2023-05-29T04:18:03;9.77;;;4.77;;
21657;SDS011;10990;48.174;9.782;2023-05-29T04:20:32;7.90;;;4.60;;
21657;SDS011;10990;48.174;9.782;2023-05-29T04:22:58;8.90;;;4.80;;
21657;SDS011;10990;48.174;9.782;2023-05-29T04:25:25;8.97;;;4.90;;
21657;SDS011;10990;48.174;9.782;2023-05-29T04:27:52;9.30;;;5.20;;
21657;SDS011;10990;48.174;9.782;2023-05-29T04:30:21;8.63;;;5.10;;
21657;SDS011;10990;48.174;9.782;2023-05-29T04:32:48;8.13;;;4.60;;
21657;SDS011;10990;48.174;9.782;2023-05-29T04:35:16;7.60;;;4.80;;
21657;SDS011;10990;48.174;9.782;2023-05-29T04:37:51;9.13;;;5.10;;
21657;SDS011;10990;48.174;9.782;2023-05-29T04:40:18;7.28;;;4.40;;
21657;SDS011;10990;48.174;9.782;2023-05-29T04:42:46;8.93;;;4.97;;
21657;SDS011;10990;48.174;9.782;2023-05-29T04:45:13;9.52;;;4.93;;
21657;SDS011;10990;48.174;9.782;2023-05-29T04:47:41;10.50;;;5.60;;
21657;SDS011;10990;48.174;9.782;2023-05-29T04:50:10;8.63;;;5.07;;
21657;SDS011;10990;48.174;9.782;2023-05-29T04:52:40;9.52;;;4.95;;
21657;SDS011;10990;48.174;9.782;2023-05-29T04:55:09;8.63;;;4.63;;
21657;SDS011;10990;48.174;9.782;2023-05-29T04:57:37;7.85;;;4.65;;
21657;SDS011;10990;48.174;9.782;2023-05-29T05:00:06;7.93;;;5.15;;
21657;SDS011;10990;48.174;9.782;2023-05-29T05:02:40;9.63;;;5.00;;
21657;SDS011;10990;48.174;9.782;2023-05-29T05:05:08;8.35;;;4.72;;
21657;SDS011;10990;48.174;9.782;2023-05-29T05:07:35;8.55;;;4.82;;
21657;SDS011;10990;48.174;9.782;2023-05-29T05:10:04;9.60;;;4.97;;
21657;SDS011;10990;48.174;9.782;2023-05-29T05:12:32;9.25;;;5.22;;
21657;SDS011;10990;48.174;9.782;2023-05-29T05:15:00;7.97;;;4.95;;
21657;SDS011;10990;48.174;9.782;2023-05-29T05:17:28;8.75;;;4.93;;
21657;SDS011;10990;48.174;9.782;2023-05-29T05:19:55;8.95;;;5.03;;
21657;SDS011;10990;48.174;9.782;2023-05-29T05:22:22;8.50;;;4.57;;
21657;SDS011;10990;48.174;9.782;2023-05-29T05:24:49;9.98;;;5.00;;
21657;SDS011;10990;48.174;9.782;2023-05-29T05:27:19;10.23;;;5.57;;
21657;SDS011;10990;48.174;9.782;2023-05-29T05:29:46;9.80;;;4.72;;
21657;SDS011;10990;48.174;9.782;2023-05-29T05:32:14;7.32;;;4.70;;
21657;SDS011;10990;48.174;9.782;2023-05-29T05:34:41;10.20;;;4.45;;
21657;SDS011;10990;48.174;9.782;2023-05-29T05:37:10;8.65;;;4.63;;
21657;SDS011;10990;48.174;9.782;2023-05-29T05:39:39;9.07;;;4.88;;
21657;SDS011;10990;48.174;9.782;2023-05-29T05:42:06;8.20;;;4.63;;
21657;SDS011;10990;48.174;9.782;2023-05-29T05:44:47;12.63;;;5.20;;
21657;SDS011;10990;48.174;9.782;2023-05-29T05:47:14;8.75;;;4.90;;
21657;SDS011;10990;48.174;9.782;2023-05-29T05:49:41;7.53;;;4.90;;
21657;SDS011;10990;48.174;9.782;2023-05-29T05:52:08;7.80;;;4.50;;
21657;SDS011;10990;48.174;9.782;2023-05-29T05:54:35;10.57;;;4.70;;
21657;SDS011;10990;48.174;9.782;2023-05-29T05:57:02;10.95;;;4.53;;
21657;SDS011;10990;48.174;9.782;2023-05-29T05:59:30;8.23;;;4.72;;
21657;SDS011;10990;48.174;9.782;2023-05-29T06:01:58;7.93;;;4.57;;
21657;SDS011;10990;48.174;9.782;2023-05-29T06:04:25;7.35;;;4.57;;
21657;SDS011;10990;48.174;9.782;2023-05-29T06:06:51;8.73;;;4.28;;
21657;SDS011;10990;48.174;9.782;2023-05-29T06:09:18;9.00;;;4.60;;
21657;SDS011;10990;48.174;9.782;2023-05-29T06:11:45;10.95;;;5.25;;
21657;SDS011;10990;48.174;9.782;2023-05-29T06:14:13;8.05;;;4.70;;
21657;SDS011;10990;48.174;9.782;2023-05-29T06:16:42;8.80;;;4.95;;
21657;SDS011;10990;48.174;9.782;2023-05-29T06:19:10;8.90;;;5.00;;
21657;SDS011;10990;48.174;9.782;2023-05-29T06:21:50;7.43;;;4.68;;
21657;SDS011;10990;48.174;9.782;2023-05-29T06:24:17;8.05;;;4.82;;
21657;SDS011;10990;48.174;9.782;2023-05-29T06:26:44;7.60;;;5.07;;
21657;SDS011;10990;48.174;9.782;2023-05-29T06:29:12;10.02;;;5.00;;
21657;SDS011;10990;48.174;9.782;2023-05-29T06:31:40;7.32;;;4.88;;
21657;SDS011;10990;48.174;9.782;2023-05-29T06:34:07;7.68;;;4.25;;
21657;SDS011;10990;48.174;9.782;2023-05-29T06:36:35;9.00;;;4.78;;
21657;SDS011;10990;48.174;9.782;2023-05-29T06:39:02;7.53;;;4.43;;
21657;SDS011;10990;48.174;9.782;2023-05-29T06:41:28;7.15;;;4.70;;
21657;SDS011;10990;48.174;9.782;2023-05-29T06:43:55;9.30;;;5.10;;
21657;SDS011;10990;48.174;9.782;2023-05-29T06:46:22;6.68;;;4.70;;
21657;SDS011;10990;48.174;9.782;2023-05-29T06:48:49;7.90;;;5.30;;
21657;SDS011;10990;48.174;9.782;2023-05-29T06:51:17;8.45;;;4.85;;
21657;SDS011;10990;48.174;9.782;2023-05-29T06:53:48;10.15;;;5.38;;
21657;SDS011;10990;48.174;9.782;2023-05-29T06:56:16;8.93;;;4.82;;
21657;SDS011;10990;48.174;9.782;2023-05-29T06:58:43;9.60;;;5.47;;
21657;SDS011;10990;48.174;9.782;2023-05-29T07:01:13;8.80;;;5.45;;
21657;SDS011;10990;48.174;9.782;2023-05-29T07:03:51;9.75;;;5.55;;
21657;SDS011;10990;48.174;9.782;2023-05-29T07:06:18;9.93;;;5.65;;
21657;SDS011;10990;48.174;9.782;2023-05-29T07:08:44;8.70;;;5.32;;
21657;SDS011;10990;48.174;9.782;2023-05-29T07:11:12;10.30;;;5.13;;
21657;SDS011;10990;48.174;9.782;2023-05-29T07:13:39;10.15;;;5.68;;
21657;SDS011;10990;48.174;9.782;2023-05-29T07:16:06;8.55;;;4.85;;
21657;SDS011;10990;48.174;9.782;2023-05-29T07:18:34;11.65;;;6.10;;
21657;SDS011;10990;48.174;9.782;2023-05-29T07:21:01;10.88;;;5.93;;
21657;SDS011;10990;48.174;9.782;2023-05-29T07:23:29;10.90;;;6.10;;
21657;SDS011;10990;48.174;9.782;2023-05-29T07:25:57;9.82;;;5.75;;
21657;SDS011;10990;48.174;9.782;2023-05-29T07:28:28;9.63;;;6.00;;
21657;SDS011;10990;48.174;9.782;2023-05-29T07:30:55;10.10;;;6.05;;
21657;SDS011;10990;48.174;9.782;2023-05-29T07:33:22;9.43;;;5.68;;
21657;SDS011;10990;48.174;9.782;2023-05-29T07:35:51;11.13;;;5.72;;
21657;SDS011;10990;48.174;9.782;2023-05-29T07:38:18;11.40;;;5.47;;
21657;SDS011;10990;48.174;9.782;2023-05-29T07:40:47;11.82;;;6.50;;
21657;SDS011;10990;48.174;9.782;2023-05-29T07:43:44;14.23;;;5.93;;
21657;SDS011;10990;48.174;9.782;2023-05-29T07:46:17;9.10;;;5.65;;
21657;SDS011;10990;48.174;9.782;2023-05-29T07:48:44;8.68;;;6.30;;
21657;SDS011;10990;48.174;9.782;2023-05-29T07:51:12;9.73;;;5.90;;
21657;SDS011;10990;48.174;9.782;2023-05-29T07:53:43;9.80;;;6.22;;
21657;SDS011;10990;48.174;9.782;2023-05-29T07:56:11;9.70;;;6.38;;
21657;SDS011;10990;48.174;9.782;2023-05-29T07:58:38;9.88;;;6.57;;
21657;SDS011;10990;48.174;9.782;2023-05-29T08:01:07;9.02;;;6.00;;
21657;SDS011;10990;48.174;9.782;2023-05-29T08:03:35;11.75;;;6.43;;
21657;SDS011;10990;48.174;9.782;2023-05-29T08:06:29;10.55;;;6.40;;
21657;SDS011;10990;48.174;9.782;2023-05-29T08:08:57;9.68;;;6.20;;
21657;SDS011;10990;48.174;9.782;2023-05-29T08:11:25;10.02;;;6.40;;
21657;SDS011;10990;48.174;9.782;2023-05-29T08:13:52;9.90;;;6.18;;
21657;SDS011;10990;48.174;9.782;2023-05-29T08:16:20;10.73;;;6.53;;
21657;SDS011;10990;48.174;9.782;2023-05-29T08:18:47;12.35;;;6.50;;
21657;SDS011;10990;48.174;9.782;2023-05-29T08:21:14;9.07;;;6.05;;
21657;SDS011;10990;48.174;9.782;2023-05-29T08:23:40;8.88;;;5.88;;
21657;SDS011;10990;48.174;9.782;2023-05-29T08:26:07;8.38;;;6.05;;
21657;SDS011;10990;48.174;9.782;2023-05-29T08:28:34;8.60;;;6.22;;
21657;SDS011;10990;48.174;9.782;2023-05-29T08:31:00;8.90;;;5.65;;
21657;SDS011;10990;48.174;9.782;2023-05-29T08:33:28;7.78;;;6.15;;
21657;SDS011;10990;48.174;9.782;2023-05-29T08:35:56;8.75;;;6.00;;
21657;SDS011;10990;48.174;9.782;2023-05-29T08:38:23;11.82;;;6.10;;
21657;SDS011;10990;48.174;9.782;2023-05-29T08:40:51;9.10;;;5.90;;
21657;SDS011;10990;48.174;9.782;2023-05-29T08:43:20;9.30;;;6.35;;
21657;SDS011;10990;48.174;9.782;2023-05-29T08:45:51;8.15;;;5.88;;
21657;SDS011;10990;48.174;9.782;2023-05-29T08:48:20;9.52;;;5.80;;
21657;SDS011;10990;48.174;9.782;2023-05-29T08:50:51;9.77;;;5.70;;
21657;SDS011;10990;48.174;9.782;2023-05-29T08:53:20;9.63;;;6.45;;
21657;SDS011;10990;48.174;9.782;2023-05-29T08:55:47;8.57;;;6.00;;
21657;SDS011;10990;48.174;9.782;2023-05-29T08:58:16;11.32;;;6.30;;
21657;SDS011;10990;48.174;9.782;2023-05-29T09:00:44;8.18;;;5.60;;
21657;SDS011;10990;48.174;9.782;2023-05-29T09:03:12;8.63;;;5.65;;
21657;SDS011;10990;48.174;9.782;2023-05-29T09:05:39;12.93;;;5.82;;
21657;SDS011;10990;48.174;9.782;2023-05-29T09:08:08;10.25;;;6.03;;
21657;SDS011;10990;48.174;9.782;2023-05-29T09:10:37;8.40;;;5.68;;
21657;SDS011;10990;48.174;9.782;2023-05-29T09:13:04;10.05;;;5.63;;
21657;SDS011;10990;48.174;9.782;2023-05-29T09:15:31;7.45;;;5.00;;
21657;SDS011;10990;48.174;9.782;2023-05-29T09:17:58;8.13;;;5.53;;
21657;SDS011;10990;48.174;9.782;2023-05-29T09:20:26;8.63;;;5.68;;
21657;SDS011;10990;48.174;9.782;2023-05-29T09:22:54;8.05;;;5.22;;
21657;SDS011;10990;48.174;9.782;2023-05-29T09:25:23;8.43;;;5.47;;
21657;SDS011;10990;48.174;9.782;2023-05-29T09:27:52;11.00;;;6.10;;
21657;SDS011;10990;48.174;9.782;2023-05-29T09:30:30;9.40;;;5.30;;
21657;SDS011;10990;48.174;9.782;2023-05-29T09:32:59;8.45;;;4.93;;
21657;SDS011;10990;48.174;9.782;2023-05-29T09:35:28;11.82;;;4.90;;
21657;SDS011;10990;48.174;9.782;2023-05-29T09:37:58;10.20;;;4.38;;
21657;SDS011;10990;48.174;9.782;2023-05-29T09:40:27;9.43;;;4.90;;
21657;SDS011;10990;48.174;9.782;2023-05-29T09:42:56;10.85;;;4.47;;
21657;SDS011;10990;48.174;9.782;2023-05-29T09:45:29;7.38;;;4.80;;
21657;SDS011;10990;48.174;9.782;2023-05-29T09:47:56;7.18;;;4.70;;
21657;SDS011;10990;48.174;9.782;2023-05-29T09:50:25;9.07;;;4.97;;
21657;SDS011;10990;48.174;9.782;2023-05-29T09:52:52;6.97;;;4.30;;
21657;SDS011;10990;48.174;9.782;2023-05-29T09:55:20;7.30;;;4.75;;
21657;SDS011;10990;48.174;9.782;2023-05-29T09:57:48;6.63;;;3.80;;
21657;SDS011;10990;48.174;9.782;2023-05-29T10:00:15;7.30;;;4.13;;
21657;SDS011;10990;48.174;9.782;2023-05-29T10:02:44;9.13;;;4.20;;
21657;SDS011;10990;48.174;9.782;2023-05-29T10:05:11;6.82;;;4.00;;
21657;SDS011;10990;48.174;9.782;2023-05-29T10:07:42;8.70;;;4.40;;
21657;SDS011;10990;48.174;9.782;2023-05-29T10:10:11;8.15;;;4.00;;
21657;SDS011;10990;48.174;9.782;2023-05-29T10:12:41;7.25;;;3.83;;
21657;SDS011;10990;48.174;9.782;2023-05-29T10:15:13;5.47;;;3.78;;
21657;SDS011;10990;48.174;9.782;2023-05-29T10:17:43;9.50;;;4.00;;
21657;SDS011;10990;48.174;9.782;2023-05-29T10:20:15;6.57;;;3.75;;
21657;SDS011;10990;48.174;9.782;2023-05-29T10:22:45;6.93;;;3.88;;
21657;SDS011;10990;48.174;9.782;2023-05-29T10:25:13;6.18;;;3.83;;
21657;SDS011;10990;48.174;9.782;2023-05-29T10:27:44;5.90;;;3.80;;
21657;SDS011;10990;48.174;9.782;2023-05-29T10:30:14;5.45;;;3.40;;
21657;SDS011;10990;48.174;9.782;2023-05-29T10:33:01;7.88;;;3.92;;
21657;SDS011;10990;48.174;9.782;2023-05-29T10:35:47;5.85;;;3.90;;
21657;SDS011;10990;48.174;9.782;2023-05-29T10:38:19;6.22;;;3.70;;
21657;SDS011;10990;48.174;9.782;2023-05-29T10:40:46;6.88;;;3.70;;
21657;SDS011;10990;48.174;9.782;2023-05-29T10:43:29;6.55;;;3.75;;
21657;SDS011;10990;48.174;9.782;2023-05-29T10:45:58;7.50;;;3.50;;
21657;SDS011;10990;48.174;9.782;2023-05-29T10:48:41;7.07;;;4.00;;
21657;SDS011;10990;48.174;9.782;2023-05-29T10:51:10;7.07;;;3.58;;
21657;SDS011;10990;48.174;9.782;2023-05-29T10:53:50;7.05;;;3.42;;
21657;SDS011;10990;48.174;9.782;2023-05-29T10:56:20;7.43;;;4.07;;
21657;SDS011;10990;48.174;9.782;2023-05-29T10:58:52;5.90;;;3.72;;
21657;SDS011;10990;48.174;9.782;2023-05-29T11:01:22;8.27;;;3.65;;
21657;SDS011;10990;48.174;9.782;2023-05-29T11:03:50;5.20;;;3.60;;
21657;SDS011;10990;48.174;9.782;2023-05-29T11:06:19;5.07;;;3.42;;
21657;SDS011;10990;48.174;9.782;2023-05-29T11:08:48;7.43;;;3.67;;
21657;SDS011;10990;48.174;9.782;2023-05-29T11:11:28;6.03;;;3.13;;
21657;SDS011;10990;48.174;9.782;2023-05-29T11:14:00;6.75;;;3.28;;
21657;SDS011;10990;48.174;9.782;2023-05-29T11:16:37;5.20;;;3.20;;
21657;SDS011;10990;48.174;9.782;2023-05-29T11:19:04;6.90;;;3.38;;
21657;SDS011;10990;48.174;9.782;2023-05-29T11:21:41;7.68;;;3.67;;
21657;SDS011;10990;48.174;9.782;2023-05-29T11:24:19;4.25;;;3.10;;
21657;SDS011;10990;48.174;9.782;2023-05-29T11:26:49;7.68;;;3.30;;
21657;SDS011;10990;48.174;9.782;2023-05-29T11:29:18;5.47;;;3.33;;
21657;SDS011;10990;48.174;9.782;2023-05-29T11:31:49;4.82;;;3.20;;
21657;SDS011;10990;48.174;9.782;2023-05-29T11:34:22;7.85;;;3.10;;
21657;SDS011;10990;48.174;9.782;2023-05-29T11:36:52;8.50;;;3.33;;
21657;SDS011;10990;48.174;9.782;2023-05-29T11:39:19;7.18;;;3.30;;
21657;SDS011;10990;48.174;9.782;2023-05-29T11:41:50;8.32;;;2.88;;
21657;SDS011;10990;48.174;9.782;2023-05-29T11:44:17;4.47;;;3.03;;
21657;SDS011;10990;48.174;9.782;2023-05-29T11:46:43;5.93;;;3.15;;
21657;SDS011;10990;48.174;9.782;2023-05-29T11:49:12;4.90;;;3.33;;
21657;SDS011;10990;48.174;9.782;2023-05-29T11:51:41;5.60;;;3.08;;
21657;SDS011;10990;48.174;9.782;2023-05-29T11:54:09;7.32;;;3.50;;
21657;SDS011;10990;48.174;9.782;2023-05-29T11:56:38;5.03;;;3.17;;
21657;SDS011;10990;48.174;9.782;2023-05-29T11:59:06;4.53;;;3.05;;
21657;SDS011;10990;48.174;9.782;2023-05-29T12:01:37;5.75;;;3.03;;
21657;SDS011;10990;48.174;9.782;2023-05-29T12:04:14;4.28;;;3.10;;
21657;SDS011;10990;48.174;9.782;2023-05-29T12:06:41;6.18;;;3.30;;
21657;SDS011;10990;48.174;9.782;2023-05-29T12:09:09;5.28;;;2.97;;
21657;SDS011;10990;48.174;9.782;2023-05-29T12:11:50;4.80;;;2.90;;
21657;SDS011;10990;48.174;9.782;2023-05-29T12:14:16;6.93;;;2.75;;
21657;SDS011;10990;48.174;9.782;2023-05-29T12:16:43;5.85;;;3.13;;
21657;SDS011;10990;48.174;9.782;2023-05-29T12:19:10;5.97;;;3.00;;
21657;SDS011;10990;48.174;9.782;2023-05-29T12:21:41;6.97;;;3.10;;
21657;SDS011;10990;48.174;9.782;2023-05-29T12:24:08;6.05;;;3.13;;
21657;SDS011;10990;48.174;9.782;2023-05-29T12:26:35;7.07;;;2.90;;
21657;SDS011;10990;48.174;9.782;2023-05-29T12:29:02;6.28;;;2.80;;
21657;SDS011;10990;48.174;9.782;2023-05-29T12:31:30;5.90;;;3.30;;
21657;SDS011;10990;48.174;9.782;2023-05-29T12:33:59;5.10;;;2.80;;
21657;SDS011;10990;48.174;9.782;2023-05-29T12:36:27;6.18;;;3.00;;
21657;SDS011;10990;48.174;9.782;2023-05-29T12:38:55;5.82;;;2.88;;
21657;SDS011;10990;48.174;9.782;2023-05-29T12:41:26;6.57;;;3.20;;
21657;SDS011;10990;48.174;9.782;2023-05-29T12:43:54;3.92;;;2.80;;
21657;SDS011;10990;48.174;9.782;2023-05-29T12:46:22;4.75;;;3.00;;
21657;SDS011;10990;48.174;9.782;2023-05-29T12:48:49;4.28;;;2.60;;
21657;SDS011;10990;48.174;9.782;2023-05-29T12:51:17;6.05;;;2.90;;
21657;SDS011;10990;48.174;9.782;2023-05-29T12:53:48;6.00;;;2.92;;
21657;SDS011;10990;48.174;9.782;2023-05-29T12:56:16;7.10;;;3.25;;
21657;SDS011;10990;48.174;9.782;2023-05-29T12:58:43;6.82;;;3.30;;
21657;SDS011;10990;48.174;9.782;2023-05-29T13:01:12;4.50;;;2.90;;
21657;SDS011;10990;48.174;9.782;2023-05-29T13:03:40;5.22;;;3.00;;
21657;SDS011;10990;48.174;9.782;2023-05-29T13:06:07;6.00;;;3.00;;
21657;SDS011;10990;48.174;9.782;2023-05-29T13:08:34;5.68;;;2.90;;
21657;SDS011;10990;48.174;9.782;2023-05-29T13:11:01;5.00;;;2.67;;
21657;SDS011;10990;48.174;9.782;2023-05-29T13:13:29;5.28;;;2.90;;
21657;SDS011;10990;48.174;9.782;2023-05-29T13:15:55;6.05;;;2.85;;
21657;SDS011;10990;48.174;9.782;2023-05-29T13:18:22;8.18;;;3.08;;
21657;SDS011;10990;48.174;9.782;2023-05-29T13:20:49;4.93;;;2.85;;
21657;SDS011;10990;48.174;9.782;2023-05-29T13:23:16;3.05;;;2.70;;
21657;SDS011;10990;48.174;9.782;2023-05-29T13:25:42;4.72;;;2.60;;
21657;SDS011;10990;48.174;9.782;2023-05-29T13:28:10;6.05;;;2.75;;
21657;SDS011;10990;48.174;9.782;2023-05-29T13:30:38;5.18;;;3.10;;
21657;SDS011;10990;48.174;9.782;2023-05-29T13:33:05;4.68;;;2.67;;
21657;SDS011;10990;48.174;9.782;2023-05-29T13:35:32;2.92;;;2.40;;
21657;SDS011;10990;48.174;9.782;2023-05-29T13:37:58;3.45;;;2.38;;
21657;SDS011;10990;48.174;9.782;2023-05-29T13:40:25;4.97;;;2.55;;
21657;SDS011;10990;48.174;9.782;2023-05-29T13:42:53;4.53;;;2.78;;
21657;SDS011;10990;48.174;9.782;2023-05-29T13:45:20;4.45;;;2.45;;
21657;SDS011;10990;48.174;9.782;2023-05-29T13:47:48;3.65;;;2.40;;
21657;SDS011;10990;48.174;9.782;2023-05-29T13:50:15;6.43;;;2.80;;
21657;SDS011;10990;48.174;9.782;2023-05-29T13:52:41;5.10;;;2.60;;
21657;SDS011;10990;48.174;9.782;2023-05-29T13:55:08;8.15;;;2.80;;
21657;SDS011;10990;48.174;9.782;2023-05-29T13:57:35;4.85;;;2.88;;
21657;SDS011;10990;48.174;9.782;2023-05-29T14:00:02;5.40;;;2.53;;
21657;SDS011;10990;48.174;9.782;2023-05-29T14:02:30;5.05;;;2.88;;
21657;SDS011;10990;48.174;9.782;2023-05-29T14:04:58;3.78;;;2.85;;
21657;SDS011;10990;48.174;9.782;2023-05-29T14:07:25;4.28;;;2.70;;
21657;SDS011;10990;48.174;9.782;2023-05-29T14:09:52;5.78;;;2.72;;
21657;SDS011;10990;48.174;9.782;2023-05-29T14:12:18;5.85;;;2.72;;
21657;SDS011;10990;48.174;9.782;2023-05-29T14:14:45;6.13;;;2.75;;
21657;SDS011;10990;48.174;9.782;2023-05-29T14:17:13;4.72;;;2.80;;
21657;SDS011;10990;48.174;9.782;2023-05-29T14:19:42;4.30;;;3.00;;
21657;SDS011;10990;48.174;9.782;2023-05-29T14:22:12;5.68;;;3.13;;
21657;SDS011;10990;48.174;9.782;2023-05-29T14:24:39;4.38;;;2.90;;
21657;SDS011;10990;48.174;9.782;2023-05-29T14:27:06;3.60;;;2.75;;
21657;SDS011;10990;48.174;9.782;2023-05-29T14:29:32;3.97;;;2.72;;
21657;SDS011;10990;48.174;9.782;2023-05-29T14:31:59;5.75;;;2.90;;
21657;SDS011;10990;48.174;9.782;2023-05-29T14:34:26;6.75;;;3.00;;
21657;SDS011;10990;48.174;9.782;2023-05-29T14:36:53;4.82;;;2.63;;
21657;SDS011;10990;48.174;9.782;2023-05-29T14:41:57;5.78;;;3.05;;
21657;SDS011;10990;48.174;9.782;2023-05-29T14:44:23;4.72;;;2.88;;
21657;SDS011;10990;48.174;9.782;2023-05-29T14:46:50;5.85;;;2.40;;
21657;SDS011;10990;48.174;9.782;2023-05-29T14:49:17;4.90;;;2.45;;
21657;SDS011;10990;48.174;9.782;2023-05-29T14:51:44;3.92;;;2.70;;
21657;SDS011;10990;48.174;9.782;2023-05-29T14:54:11;5.90;;;2.70;;
21657;SDS011;10990;48.174;9.782;2023-05-29T14:56:39;5.05;;;3.05;;